Aviation Digital Data Service (ADDS)

Output produced by METARs form (0026 UTC 20 April 2019)
found at http://www.aviationweather.gov/metar/data/
 
Forecast for: LSZS (SAMEDAN , CH)
Text: TAF LSZS 191425Z 1915/1924 08001KT 9999 SCT052 TX09/1915Z
Forecast period: 1500 UTC 19 April 2019 to 0000 UTC 20 April 2019
Forecast type: FROM: standard forecast or significant change
Winds: from the E (80 degrees) at 1 MPH (1 knots; 0.5 m/s)
Visibility: 6 or more miles 10+ km)
Ceiling: at least 12,000 feet AGL
Clouds: scattered clouds at 5200 feet AGL
Weather: no significant weather forecast for this period
Text: BECMG 1915/1918 CAVOK
Forecast period: 1500 UTC 19 April 2019 to 0000 UTC 20 April 2019
Forecast type: BECOMING: Conditions expected to become as follows by 1800 UTC 19 April 2019
Winds: from the E (80 degrees) at 1 MPH (1 knots; 0.5 m/s)
Visibility: 6 or more miles 10+ km)
Ceiling: unknown
Clouds: missing
Weather: NSW  (no significant weather)